sensor_id;sensor_type;location;lat;lon;timestamp;P1;durP1;ratioP1;P2;durP2;ratioP2
58874;SDS011;44652;49.040;12.126;2023-05-16T05:34:51;14.18;;;12.55;;
58874;SDS011;44652;49.040;12.126;2023-05-16T05:37:18;13.60;;;11.73;;
58874;SDS011;44652;49.040;12.126;2023-05-16T05:39:45;16.73;;;12.18;;
58874;SDS011;44652;49.040;12.126;2023-05-16T05:42:11;14.45;;;12.02;;
58874;SDS011;44652;49.040;12.126;2023-05-16T05:44:38;13.43;;;12.05;;
58874;SDS011;44652;49.040;12.126;2023-05-16T05:47:05;14.05;;;12.48;;
58874;SDS011;44652;49.040;12.126;2023-05-16T05:49:32;13.63;;;12.23;;
58874;SDS011;44652;49.040;12.126;2023-05-16T05:51:58;13.77;;;12.35;;
58874;SDS011;44652;49.040;12.126;2023-05-16T05:54:25;12.98;;;11.38;;
58874;SDS011;44652;49.040;12.126;2023-05-16T05:56:52;14.02;;;11.15;;
58874;SDS011;44652;49.040;12.126;2023-05-16T05:59:20;13.05;;;11.48;;
58874;SDS011;44652;49.040;12.126;2023-05-16T06:01:47;12.63;;;11.38;;
58874;SDS011;44652;49.040;12.126;2023-05-16T06:04:18;15.32;;;11.57;;
58874;SDS011;44652;49.040;12.126;2023-05-16T06:06:45;12.77;;;11.00;;
58874;SDS011;44652;49.040;12.126;2023-05-16T06:09:12;12.73;;;10.63;;
58874;SDS011;44652;49.040;12.126;2023-05-16T06:11:41;11.40;;;10.15;;
58874;SDS011;44652;49.040;12.126;2023-05-16T06:14:10;11.30;;;10.15;;
58874;SDS011;44652;49.040;12.126;2023-05-16T06:16:37;12.15;;;10.30;;
58874;SDS011;44652;49.040;12.126;2023-05-16T06:19:05;11.57;;;10.30;;
58874;SDS011;44652;49.040;12.126;2023-05-16T06:21:32;12.90;;;10.82;;
58874;SDS011;44652;49.040;12.126;2023-05-16T06:23:59;14.52;;;10.68;;
58874;SDS011;44652;49.040;12.126;2023-05-16T06:26:25;14.95;;;10.90;;
58874;SDS011;44652;49.040;12.126;2023-05-16T06:28:52;12.15;;;10.95;;
58874;SDS011;44652;49.040;12.126;2023-05-16T06:31:19;12.10;;;10.82;;
58874;SDS011;44652;49.040;12.126;2023-05-16T06:33:45;14.85;;;11.07;;
58874;SDS011;44652;49.040;12.126;2023-05-16T06:36:12;14.38;;;11.73;;
58874;SDS011;44652;49.040;12.126;2023-05-16T06:38:38;13.65;;;11.63;;
58874;SDS011;44652;49.040;12.126;2023-05-16T06:41:05;13.57;;;11.18;;
58874;SDS011;44652;49.040;12.126;2023-05-16T06:43:31;20.52;;;11.75;;
58874;SDS011;44652;49.040;12.126;2023-05-16T06:45:58;13.63;;;11.10;;
58874;SDS011;44652;49.040;12.126;2023-05-16T06:48:24;11.60;;;10.07;;
58874;SDS011;44652;49.040;12.126;2023-05-16T06:50:51;11.23;;;9.70;;
58874;SDS011;44652;49.040;12.126;2023-05-16T06:53:18;13.10;;;10.98;;
58874;SDS011;44652;49.040;12.126;2023-05-16T06:55:45;11.52;;;10.32;;
58874;SDS011;44652;49.040;12.126;2023-05-16T06:58:12;11.68;;;10.43;;
58874;SDS011;44652;49.040;12.126;2023-05-16T07:00:39;13.07;;;10.50;;
58874;SDS011;44652;49.040;12.126;2023-05-16T07:03:06;11.60;;;10.20;;
58874;SDS011;44652;49.040;12.126;2023-05-16T07:05:32;15.15;;;11.15;;
58874;SDS011;44652;49.040;12.126;2023-05-16T07:07:59;11.50;;;10.15;;
58874;SDS011;44652;49.040;12.126;2023-05-16T07:10:25;11.95;;;10.55;;
58874;SDS011;44652;49.040;12.126;2023-05-16T07:12:52;13.25;;;10.40;;
58874;SDS011;44652;49.040;12.126;2023-05-16T07:15:19;12.25;;;10.32;;
58874;SDS011;44652;49.040;12.126;2023-05-16T07:17:45;11.88;;;10.65;;
58874;SDS011;44652;49.040;12.126;2023-05-16T07:20:12;12.65;;;9.88;;
58874;SDS011;44652;49.040;12.126;2023-05-16T07:22:40;11.93;;;10.63;;
58874;SDS011;44652;49.040;12.126;2023-05-16T07:25:06;10.70;;;9.40;;
58874;SDS011;44652;49.040;12.126;2023-05-16T07:27:38;12.88;;;9.77;;
58874;SDS011;44652;49.040;12.126;2023-05-16T07:30:12;10.30;;;9.27;;
58874;SDS011;44652;49.040;12.126;2023-05-16T07:32:39;10.93;;;9.63;;
58874;SDS011;44652;49.040;12.126;2023-05-16T07:35:06;11.00;;;9.95;;
58874;SDS011;44652;49.040;12.126;2023-05-16T07:37:33;11.95;;;9.77;;
58874;SDS011;44652;49.040;12.126;2023-05-16T07:40:03;11.98;;;9.55;;
58874;SDS011;44652;49.040;12.126;2023-05-16T07:42:30;11.77;;;9.57;;
58874;SDS011;44652;49.040;12.126;2023-05-16T07:44:56;10.90;;;9.10;;
58874;SDS011;44652;49.040;12.126;2023-05-16T07:47:23;15.27;;;9.60;;
58874;SDS011;44652;49.040;12.126;2023-05-16T07:49:50;11.18;;;9.05;;
58874;SDS011;44652;49.040;12.126;2023-05-16T07:52:16;14.50;;;9.13;;
58874;SDS011;44652;49.040;12.126;2023-05-16T07:54:44;10.73;;;9.55;;
58874;SDS011;44652;49.040;12.126;2023-05-16T07:57:12;10.20;;;9.07;;
58874;SDS011;44652;49.040;12.126;2023-05-16T07:59:39;11.73;;;9.73;;
58874;SDS011;44652;49.040;12.126;2023-05-16T08:02:06;13.45;;;8.88;;
58874;SDS011;44652;49.040;12.126;2023-05-16T08:04:33;10.98;;;9.05;;
58874;SDS011;44652;49.040;12.126;2023-05-16T08:06:59;14.32;;;9.27;;
58874;SDS011;44652;49.040;12.126;2023-05-16T08:09:26;10.93;;;8.77;;
58874;SDS011;44652;49.040;12.126;2023-05-16T08:11:52;12.73;;;8.82;;
58874;SDS011;44652;49.040;12.126;2023-05-16T08:14:19;10.00;;;9.00;;
58874;SDS011;44652;49.040;12.126;2023-05-16T08:16:45;11.77;;;8.88;;
58874;SDS011;44652;49.040;12.126;2023-05-16T08:19:12;11.48;;;8.55;;
58874;SDS011;44652;49.040;12.126;2023-05-16T08:21:39;9.75;;;8.27;;
58874;SDS011;44652;49.040;12.126;2023-05-16T08:24:06;12.30;;;7.97;;
58874;SDS011;44652;49.040;12.126;2023-05-16T08:26:33;9.23;;;7.88;;
58874;SDS011;44652;49.040;12.126;2023-05-16T08:28:59;9.60;;;8.07;;
58874;SDS011;44652;49.040;12.126;2023-05-16T08:31:26;8.60;;;7.70;;
58874;SDS011;44652;49.040;12.126;2023-05-16T08:33:53;11.30;;;8.05;;
58874;SDS011;44652;49.040;12.126;2023-05-16T08:36:19;10.10;;;8.00;;
58874;SDS011;44652;49.040;12.126;2023-05-16T08:38:46;11.30;;;7.88;;
58874;SDS011;44652;49.040;12.126;2023-05-16T08:41:13;9.43;;;8.07;;
58874;SDS011;44652;49.040;12.126;2023-05-16T08:43:39;13.57;;;8.73;;
58874;SDS011;44652;49.040;12.126;2023-05-16T08:46:06;9.45;;;7.70;;
58874;SDS011;44652;49.040;12.126;2023-05-16T08:48:33;10.38;;;7.68;;
58874;SDS011;44652;49.040;12.126;2023-05-16T08:51:00;9.27;;;7.70;;
58874;SDS011;44652;49.040;12.126;2023-05-16T08:55:54;10.98;;;7.65;;
58874;SDS011;44652;49.040;12.126;2023-05-16T08:58:21;8.10;;;6.97;;
58874;SDS011;44652;49.040;12.126;2023-05-16T09:00:48;9.23;;;7.45;;
58874;SDS011;44652;49.040;12.126;2023-05-16T09:03:14;11.25;;;8.35;;
58874;SDS011;44652;49.040;12.126;2023-05-16T09:05:41;10.25;;;8.10;;
58874;SDS011;44652;49.040;12.126;2023-05-16T09:08:08;8.45;;;7.55;;
58874;SDS011;44652;49.040;12.126;2023-05-16T09:10:35;9.27;;;7.88;;
58874;SDS011;44652;49.040;12.126;2023-05-16T09:13:01;9.77;;;6.45;;
58874;SDS011;44652;49.040;12.126;2023-05-16T09:15:30;9.23;;;7.05;;
58874;SDS011;44652;49.040;12.126;2023-05-16T09:17:58;7.68;;;6.75;;
58874;SDS011;44652;49.040;12.126;2023-05-16T09:20:25;10.20;;;7.60;;
58874;SDS011;44652;49.040;12.126;2023-05-16T09:22:53;8.70;;;7.28;;
58874;SDS011;44652;49.040;12.126;2023-05-16T09:25:20;7.47;;;6.53;;
58874;SDS011;44652;49.040;12.126;2023-05-16T09:27:57;7.10;;;6.40;;
58874;SDS011;44652;49.040;12.126;2023-05-16T09:30:28;10.60;;;6.55;;
58874;SDS011;44652;49.040;12.126;2023-05-16T09:32:55;7.63;;;6.03;;
58874;SDS011;44652;49.040;12.126;2023-05-16T09:35:22;10.63;;;6.93;;
58874;SDS011;44652;49.040;12.126;2023-05-16T09:38:14;8.98;;;6.88;;
58874;SDS011;44652;49.040;12.126;2023-05-16T09:40:42;8.48;;;6.53;;
58874;SDS011;44652;49.040;12.126;2023-05-16T09:43:08;8.88;;;6.53;;
58874;SDS011;44652;49.040;12.126;2023-05-16T09:45:37;12.57;;;6.47;;
58874;SDS011;44652;49.040;12.126;2023-05-16T09:48:04;10.98;;;6.93;;
58874;SDS011;44652;49.040;12.126;2023-05-16T09:50:32;10.05;;;7.13;;
58874;SDS011;44652;49.040;12.126;2023-05-16T09:53:00;12.95;;;7.55;;
58874;SDS011;44652;49.040;12.126;2023-05-16T09:55:27;9.10;;;7.78;;
58874;SDS011;44652;49.040;12.126;2023-05-16T09:57:54;14.70;;;8.00;;
58874;SDS011;44652;49.040;12.126;2023-05-16T10:00:21;12.55;;;9.15;;
58874;SDS011;44652;49.040;12.126;2023-05-16T10:02:47;14.73;;;9.40;;
58874;SDS011;44652;49.040;12.126;2023-05-16T10:05:15;12.88;;;9.65;;
58874;SDS011;44652;49.040;12.126;2023-05-16T10:07:42;14.05;;;11.35;;
58874;SDS011;44652;49.040;12.126;2023-05-16T10:10:10;12.98;;;11.60;;
58874;SDS011;44652;49.040;12.126;2023-05-16T10:12:38;14.88;;;10.35;;
58874;SDS011;44652;49.040;12.126;2023-05-16T10:15:05;14.77;;;10.43;;
58874;SDS011;44652;49.040;12.126;2023-05-16T10:17:33;11.95;;;8.00;;
58874;SDS011;44652;49.040;12.126;2023-05-16T10:20:00;10.67;;;9.13;;
58874;SDS011;44652;49.040;12.126;2023-05-16T10:22:28;17.27;;;9.75;;
58874;SDS011;44652;49.040;12.126;2023-05-16T10:24:59;12.85;;;10.57;;
58874;SDS011;44652;49.040;12.126;2023-05-16T10:27:26;13.50;;;11.43;;
58874;SDS011;44652;49.040;12.126;2023-05-16T10:29:53;13.68;;;12.00;;
58874;SDS011;44652;49.040;12.126;2023-05-16T10:32:22;14.55;;;12.10;;
58874;SDS011;44652;49.040;12.126;2023-05-16T10:37:16;21.90;;;13.65;;
58874;SDS011;44652;49.040;12.126;2023-05-16T10:39:43;19.70;;;15.95;;
58874;SDS011;44652;49.040;12.126;2023-05-16T10:42:10;19.33;;;16.83;;
58874;SDS011;44652;49.040;12.126;2023-05-16T10:44:39;17.05;;;15.35;;
58874;SDS011;44652;49.040;12.126;2023-05-16T10:47:17;15.57;;;13.95;;
58874;SDS011;44652;49.040;12.126;2023-05-16T10:49:44;18.50;;;16.05;;
58874;SDS011;44652;49.040;12.126;2023-05-16T10:52:11;17.70;;;15.95;;
58874;SDS011;44652;49.040;12.126;2023-05-16T10:54:39;17.77;;;12.95;;
58874;SDS011;44652;49.040;12.126;2023-05-16T10:57:11;13.40;;;12.00;;
58874;SDS011;44652;49.040;12.126;2023-05-16T10:59:41;10.98;;;8.45;;
58874;SDS011;44652;49.040;12.126;2023-05-16T11:02:27;11.40;;;10.02;;
58874;SDS011;44652;49.040;12.126;2023-05-16T11:04:55;11.52;;;8.35;;
58874;SDS011;44652;49.040;12.126;2023-05-16T11:07:22;8.45;;;7.13;;
58874;SDS011;44652;49.040;12.126;2023-05-16T11:17:46;8.55;;;5.97;;
58874;SDS011;44652;49.040;12.126;2023-05-16T11:20:26;9.65;;;7.75;;
58874;SDS011;44652;49.040;12.126;2023-05-16T11:23:16;8.80;;;6.90;;
58874;SDS011;44652;49.040;12.126;2023-05-16T11:25:39;8.50;;;7.43;;
58874;SDS011;44652;49.040;12.126;2023-05-16T11:28:06;12.07;;;8.57;;
58874;SDS011;44652;49.040;12.126;2023-05-16T11:30:33;8.85;;;7.75;;
58874;SDS011;44652;49.040;12.126;2023-05-16T11:33:00;8.25;;;7.43;;
58874;SDS011;44652;49.040;12.126;2023-05-16T11:35:26;7.53;;;6.72;;
58874;SDS011;44652;49.040;12.126;2023-05-16T11:37:56;9.70;;;7.25;;
58874;SDS011;44652;49.040;12.126;2023-05-16T11:40:22;9.82;;;7.85;;
58874;SDS011;44652;49.040;12.126;2023-05-16T11:42:49;10.50;;;9.02;;
58874;SDS011;44652;49.040;12.126;2023-05-16T11:45:17;11.02;;;8.27;;
58874;SDS011;44652;49.040;12.126;2023-05-16T11:47:45;10.05;;;8.85;;
58874;SDS011;44652;49.040;12.126;2023-05-16T11:50:17;11.48;;;9.63;;
58874;SDS011;44652;49.040;12.126;2023-05-16T11:52:50;11.20;;;9.80;;
58874;SDS011;44652;49.040;12.126;2023-05-16T11:55:26;9.75;;;8.43;;
58874;SDS011;44652;49.040;12.126;2023-05-16T11:58:07;8.60;;;7.40;;
58874;SDS011;44652;49.040;12.126;2023-05-16T12:00:34;8.13;;;6.80;;
58874;SDS011;44652;49.040;12.126;2023-05-16T12:03:01;9.55;;;7.47;;
58874;SDS011;44652;49.040;12.126;2023-05-16T12:05:30;7.85;;;7.05;;
58874;SDS011;44652;49.040;12.126;2023-05-16T12:07:58;9.27;;;6.45;;
58874;SDS011;44652;49.040;12.126;2023-05-16T12:10:25;7.05;;;5.90;;
58874;SDS011;44652;49.040;12.126;2023-05-16T12:12:52;7.65;;;6.50;;
58874;SDS011;44652;49.040;12.126;2023-05-16T12:15:20;7.67;;;6.87;;
58874;SDS011;44652;49.040;12.126;2023-05-16T12:17:46;9.98;;;6.45;;
58874;SDS011;44652;49.040;12.126;2023-05-16T12:20:13;8.55;;;6.18;;
58874;SDS011;44652;49.040;12.126;2023-05-16T12:22:44;7.93;;;6.13;;
58874;SDS011;44652;49.040;12.126;2023-05-16T12:28:11;7.72;;;5.88;;
58874;SDS011;44652;49.040;12.126;2023-05-16T12:30:39;7.43;;;6.13;;
58874;SDS011;44652;49.040;12.126;2023-05-16T12:35:36;7.18;;;6.07;;
58874;SDS011;44652;49.040;12.126;2023-05-16T12:40:29;7.72;;;6.03;;
58874;SDS011;44652;49.040;12.126;2023-05-16T12:42:56;7.65;;;6.53;;
58874;SDS011;44652;49.040;12.126;2023-05-16T12:45:25;8.35;;;6.43;;
58874;SDS011;44652;49.040;12.126;2023-05-16T12:47:52;7.70;;;6.90;;
58874;SDS011;44652;49.040;12.126;2023-05-16T12:50:19;10.15;;;6.82;;
58874;SDS011;44652;49.040;12.126;2023-05-16T12:52:49;9.73;;;7.10;;
58874;SDS011;44652;49.040;12.126;2023-05-16T12:55:16;8.82;;;6.85;;
58874;SDS011;44652;49.040;12.126;2023-05-16T12:57:44;9.33;;;6.70;;
58874;SDS011;44652;49.040;12.126;2023-05-16T13:00:13;8.98;;;7.55;;
58874;SDS011;44652;49.040;12.126;2023-05-16T13:02:40;8.63;;;7.72;;
58874;SDS011;44652;49.040;12.126;2023-05-16T13:05:08;9.32;;;7.82;;
58874;SDS011;44652;49.040;12.126;2023-05-16T13:07:36;9.27;;;8.38;;
58874;SDS011;44652;49.040;12.126;2023-05-16T13:10:08;9.73;;;8.30;;
58874;SDS011;44652;49.040;12.126;2023-05-16T13:12:39;10.30;;;7.90;;
58874;SDS011;44652;49.040;12.126;2023-05-16T13:15:06;8.38;;;7.47;;
58874;SDS011;44652;49.040;12.126;2023-05-16T13:17:33;12.10;;;7.93;;
58874;SDS011;44652;49.040;12.126;2023-05-16T13:20:00;9.25;;;7.15;;
58874;SDS011;44652;49.040;12.126;2023-05-16T13:22:28;11.38;;;8.40;;
58874;SDS011;44652;49.040;12.126;2023-05-16T13:24:54;11.70;;;9.38;;
58874;SDS011;44652;49.040;12.126;2023-05-16T13:27:21;9.90;;;8.88;;
58874;SDS011;44652;49.040;12.126;2023-05-16T13:29:47;12.63;;;10.18;;
58874;SDS011;44652;49.040;12.126;2023-05-16T13:32:14;10.63;;;9.55;;
58874;SDS011;44652;49.040;12.126;2023-05-16T13:34:41;11.75;;;10.32;;
58874;SDS011;44652;49.040;12.126;2023-05-16T13:37:07;12.18;;;10.40;;
58874;SDS011;44652;49.040;12.126;2023-05-16T13:39:34;12.27;;;11.07;;
58874;SDS011;44652;49.040;12.126;2023-05-16T13:42:01;12.80;;;10.23;;
58874;SDS011;44652;49.040;12.126;2023-05-16T13:44:28;11.45;;;10.02;;
58874;SDS011;44652;49.040;12.126;2023-05-16T13:46:55;11.95;;;9.90;;
58874;SDS011;44652;49.040;12.126;2023-05-16T13:49:23;12.57;;;10.43;;
58874;SDS011;44652;49.040;12.126;2023-05-16T13:51:49;11.25;;;9.30;;
58874;SDS011;44652;49.040;12.126;2023-05-16T13:54:17;10.85;;;9.70;;
58874;SDS011;44652;49.040;12.126;2023-05-16T13:56:44;10.48;;;9.40;;
58874;SDS011;44652;49.040;12.126;2023-05-16T13:59:11;13.23;;;9.43;;
58874;SDS011;44652;49.040;12.126;2023-05-16T14:01:46;12.50;;;8.38;;
58874;SDS011;44652;49.040;12.126;2023-05-16T14:04:12;9.57;;;7.55;;
58874;SDS011;44652;49.040;12.126;2023-05-16T14:06:39;9.32;;;8.43;;
58874;SDS011;44652;49.040;12.126;2023-05-16T14:09:06;10.32;;;8.27;;
58874;SDS011;44652;49.040;12.126;2023-05-16T14:11:35;9.43;;;8.43;;
58874;SDS011;44652;49.040;12.126;2023-05-16T14:14:02;11.35;;;8.45;;
58874;SDS011;44652;49.040;12.126;2023-05-16T14:16:29;10.50;;;9.13;;
58874;SDS011;44652;49.040;12.126;2023-05-16T14:18:56;11.35;;;9.60;;
58874;SDS011;44652;49.040;12.126;2023-05-16T14:21:23;10.45;;;9.35;;
58874;SDS011;44652;49.040;12.126;2023-05-16T14:23:49;12.13;;;10.82;;
58874;SDS011;44652;49.040;12.126;2023-05-16T14:26:16;14.05;;;10.90;;
58874;SDS011;44652;49.040;12.126;2023-05-16T14:28:47;12.25;;;10.73;;
58874;SDS011;44652;49.040;12.126;2023-05-16T14:31:14;11.73;;;9.73;;
58874;SDS011;44652;49.040;12.126;2023-05-16T14:33:40;11.02;;;8.70;;
58874;SDS011;44652;49.040;12.126;2023-05-16T14:36:09;10.68;;;8.63;;
58874;SDS011;44652;49.040;12.126;2023-05-16T14:38:35;8.98;;;7.57;;
58874;SDS011;44652;49.040;12.126;2023-05-16T14:41:02;7.75;;;6.95;;
58874;SDS011;44652;49.040;12.126;2023-05-16T14:43:28;8.45;;;6.40;;
58874;SDS011;44652;49.040;12.126;2023-05-16T14:45:55;7.50;;;6.07;;
58874;SDS011;44652;49.040;12.126;2023-05-16T14:48:21;7.00;;;6.13;;
58874;SDS011;44652;49.040;12.126;2023-05-16T14:50:48;6.30;;;5.70;;
58874;SDS011;44652;49.040;12.126;2023-05-16T14:53:15;7.88;;;5.97;;
58874;SDS011;44652;49.040;12.126;2023-05-16T14:55:41;7.03;;;5.53;;
58874;SDS011;44652;49.040;12.126;2023-05-16T14:58:08;7.18;;;5.68;;
58874;SDS011;44652;49.040;12.126;2023-05-16T15:00:35;6.80;;;5.68;;
58874;SDS011;44652;49.040;12.126;2023-05-16T15:03:02;6.65;;;5.95;;
58874;SDS011;44652;49.040;12.126;2023-05-16T15:05:28;8.52;;;6.45;;
58874;SDS011;44652;49.040;12.126;2023-05-16T15:07:55;10.50;;;7.78;;
58874;SDS011;44652;49.040;12.126;2023-05-16T15:10:22;9.13;;;8.23;;
58874;SDS011;44652;49.040;12.126;2023-05-16T15:12:48;11.82;;;8.05;;
58874;SDS011;44652;49.040;12.126;2023-05-16T15:15:15;10.13;;;8.25;;
58874;SDS011;44652;49.040;12.126;2023-05-16T15:17:42;10.93;;;8.35;;
58874;SDS011;44652;49.040;12.126;2023-05-16T15:20:09;10.63;;;9.20;;
58874;SDS011;44652;49.040;12.126;2023-05-16T15:22:37;14.33;;;9.77;;
58874;SDS011;44652;49.040;12.126;2023-05-16T15:25:04;11.13;;;9.93;;
58874;SDS011;44652;49.040;12.126;2023-05-16T15:27:31;11.43;;;10.05;;
58874;SDS011;44652;49.040;12.126;2023-05-16T15:29:57;11.82;;;10.60;;
58874;SDS011;44652;49.040;12.126;2023-05-16T15:32:24;12.45;;;10.02;;
58874;SDS011;44652;49.040;12.126;2023-05-16T15:34:51;12.60;;;10.30;;
58874;SDS011;44652;49.040;12.126;2023-05-16T15:37:18;11.50;;;10.30;;
58874;SDS011;44652;49.040;12.126;2023-05-16T15:39:44;10.70;;;9.60;;
58874;SDS011;44652;49.040;12.126;2023-05-16T15:42:11;16.00;;;10.60;;
58874;SDS011;44652;49.040;12.126;2023-05-16T15:44:37;13.00;;;8.88;;
58874;SDS011;44652;49.040;12.126;2023-05-16T15:47:05;10.82;;;8.23;;
58874;SDS011;44652;49.040;12.126;2023-05-16T15:49:31;7.38;;;6.15;;
58874;SDS011;44652;49.040;12.126;2023-05-16T15:51:58;7.90;;;5.70;;
58874;SDS011;44652;49.040;12.126;2023-05-16T15:54:24;9.30;;;6.40;;
58874;SDS011;44652;49.040;12.126;2023-05-16T15:56:51;8.85;;;6.57;;
58874;SDS011;44652;49.040;12.126;2023-05-16T15:59:18;8.02;;;6.10;;
58874;SDS011;44652;49.040;12.126;2023-05-16T16:01:44;12.13;;;6.40;;
58874;SDS011;44652;49.040;12.126;2023-05-16T16:04:11;9.00;;;7.05;;
58874;SDS011;44652;49.040;12.126;2023-05-16T16:06:38;9.95;;;7.80;;
58874;SDS011;44652;49.040;12.126;2023-05-16T16:09:04;10.45;;;7.80;;
58874;SDS011;44652;49.040;12.126;2023-05-16T16:11:31;9.98;;;7.57;;
58874;SDS011;44652;49.040;12.126;2023-05-16T16:13:57;7.85;;;6.47;;
58874;SDS011;44652;49.040;12.126;2023-05-16T16:16:24;8.90;;;6.82;;
58874;SDS011;44652;49.040;12.126;2023-05-16T16:18:51;9.95;;;6.68;;
58874;SDS011;44652;49.040;12.126;2023-05-16T16:21:18;8.65;;;6.63;;
58874;SDS011;44652;49.040;12.126;2023-05-16T16:23:45;8.50;;;6.45;;
58874;SDS011;44652;49.040;12.126;2023-05-16T16:26:11;7.22;;;5.82;;
58874;SDS011;44652;49.040;12.126;2023-05-16T16:28:38;8.55;;;5.88;;
58874;SDS011;44652;49.040;12.126;2023-05-16T16:31:04;7.53;;;6.25;;
58874;SDS011;44652;49.040;12.126;2023-05-16T16:33:31;7.80;;;6.15;;
58874;SDS011;44652;49.040;12.126;2023-05-16T16:35:59;9.32;;;5.90;;
58874;SDS011;44652;49.040;12.126;2023-05-16T16:38:26;8.63;;;5.55;;
58874;SDS011;44652;49.040;12.126;2023-05-16T16:40:53;7.93;;;5.60;;
58874;SDS011;44652;49.040;12.126;2023-05-16T16:43:19;8.40;;;5.50;;
58874;SDS011;44652;49.040;12.126;2023-05-16T16:45:46;8.32;;;5.30;;
58874;SDS011;44652;49.040;12.126;2023-05-16T16:48:13;14.88;;;5.75;;
58874;SDS011;44652;49.040;12.126;2023-05-16T16:50:39;6.97;;;5.32;;
58874;SDS011;44652;49.040;12.126;2023-05-16T16:53:06;12.40;;;5.53;;
58874;SDS011;44652;49.040;12.126;2023-05-16T16:55:33;8.30;;;5.80;;
58874;SDS011;44652;49.040;12.126;2023-05-16T16:58:00;8.40;;;5.78;;
58874;SDS011;44652;49.040;12.126;2023-05-16T17:00:27;8.63;;;5.77;;
58874;SDS011;44652;49.040;12.126;2023-05-16T17:02:54;8.73;;;6.10;;
58874;SDS011;44652;49.040;12.126;2023-05-16T17:05:21;11.02;;;6.35;;
58874;SDS011;44652;49.040;12.126;2023-05-16T17:07:48;10.70;;;6.15;;
58874;SDS011;44652;49.040;12.126;2023-05-16T17:10:15;8.40;;;6.55;;
58874;SDS011;44652;49.040;12.126;2023-05-16T17:12:43;10.93;;;6.33;;
58874;SDS011;44652;49.040;12.126;2023-05-16T17:15:15;8.75;;;6.15;;
58874;SDS011;44652;49.040;12.126;2023-05-16T17:17:43;10.57;;;6.47;;
58874;SDS011;44652;49.040;12.126;2023-05-16T17:20:11;9.38;;;6.47;;
58874;SDS011;44652;49.040;12.126;2023-05-16T17:22:38;9.33;;;5.40;;
58874;SDS011;44652;49.040;12.126;2023-05-16T17:25:05;7.90;;;6.35;;
58874;SDS011;44652;49.040;12.126;2023-05-16T17:27:32;8.25;;;6.10;;
58874;SDS011;44652;49.040;12.126;2023-05-16T17:29:58;10.90;;;5.90;;
58874;SDS011;44652;49.040;12.126;2023-05-16T17:32:25;8.02;;;6.20;;
58874;SDS011;44652;49.040;12.126;2023-05-16T17:34:52;8.18;;;6.40;;
58874;SDS011;44652;49.040;12.126;2023-05-16T17:37:19;8.32;;;6.53;;
58874;SDS011;44652;49.040;12.126;2023-05-16T17:39:46;9.20;;;6.60;;
58874;SDS011;44652;49.040;12.126;2023-05-16T17:42:13;10.70;;;6.22;;
58874;SDS011;44652;49.040;12.126;2023-05-16T17:44:39;8.50;;;6.40;;
58874;SDS011;44652;49.040;12.126;2023-05-16T17:47:06;9.45;;;5.80;;
58874;SDS011;44652;49.040;12.126;2023-05-16T17:49:33;7.95;;;6.07;;
58874;SDS011;44652;49.040;12.126;2023-05-16T17:52:00;9.82;;;5.93;;
58874;SDS011;44652;49.040;12.126;2023-05-16T17:54:26;10.10;;;5.60;;
58874;SDS011;44652;49.040;12.126;2023-05-16T17:56:56;7.28;;;5.07;;
58874;SDS011;44652;49.040;12.126;2023-05-16T17:59:23;6.97;;;5.35;;
58874;SDS011;44652;49.040;12.126;2023-05-16T18:01:54;8.32;;;5.05;;
58874;SDS011;44652;49.040;12.126;2023-05-16T18:04:21;8.65;;;5.70;;
58874;SDS011;44652;49.040;12.126;2023-05-16T18:06:49;6.93;;;5.13;;
58874;SDS011;44652;49.040;12.126;2023-05-16T18:09:18;7.70;;;4.53;;
58874;SDS011;44652;49.040;12.126;2023-05-16T18:11:46;7.67;;;4.50;;
58874;SDS011;44652;49.040;12.126;2023-05-16T18:14:12;6.43;;;4.15;;
58874;SDS011;44652;49.040;12.126;2023-05-16T18:16:39;7.55;;;4.15;;
58874;SDS011;44652;49.040;12.126;2023-05-16T18:19:06;5.55;;;3.60;;
58874;SDS011;44652;49.040;12.126;2023-05-16T18:21:36;6.55;;;3.70;;
58874;SDS011;44652;49.040;12.126;2023-05-16T18:24:03;5.85;;;4.18;;
58874;SDS011;44652;49.040;12.126;2023-05-16T18:26:30;7.18;;;4.00;;
58874;SDS011;44652;49.040;12.126;2023-05-16T18:28:57;7.07;;;5.00;;
58874;SDS011;44652;49.040;12.126;2023-05-16T18:31:24;5.28;;;3.83;;
58874;SDS011;44652;49.040;12.126;2023-05-16T18:33:50;6.20;;;4.10;;
58874;SDS011;44652;49.040;12.126;2023-05-16T18:36:17;6.35;;;3.67;;
58874;SDS011;44652;49.040;12.126;2023-05-16T18:38:44;6.55;;;3.80;;
58874;SDS011;44652;49.040;12.126;2023-05-16T18:41:10;7.93;;;4.68;;
58874;SDS011;44652;49.040;12.126;2023-05-16T18:43:37;5.45;;;3.88;;
58874;SDS011;44652;49.040;12.126;2023-05-16T18:46:04;8.70;;;4.30;;
58874;SDS011;44652;49.040;12.126;2023-05-16T18:48:30;6.05;;;3.88;;
58874;SDS011;44652;49.040;12.126;2023-05-16T18:51:00;5.45;;;4.28;;
58874;SDS011;44652;49.040;12.126;2023-05-16T18:53:27;9.15;;;4.82;;
58874;SDS011;44652;49.040;12.126;2023-05-16T18:55:53;7.13;;;4.63;;
58874;SDS011;44652;49.040;12.126;2023-05-16T18:58:21;5.65;;;4.00;;
58874;SDS011;44652;49.040;12.126;2023-05-16T19:00:47;6.22;;;3.95;;
58874;SDS011;44652;49.040;12.126;2023-05-16T19:03:14;7.47;;;4.18;;
58874;SDS011;44652;49.040;12.126;2023-05-16T19:05:41;7.07;;;3.90;;
58874;SDS011;44652;49.040;12.126;2023-05-16T19:08:08;5.40;;;3.72;;
58874;SDS011;44652;49.040;12.126;2023-05-16T19:10:34;7.00;;;3.75;;
58874;SDS011;44652;49.040;12.126;2023-05-16T19:13:03;6.15;;;3.65;;
58874;SDS011;44652;49.040;12.126;2023-05-16T19:15:34;6.68;;;3.85;;
58874;SDS011;44652;49.040;12.126;2023-05-16T19:18:01;6.82;;;4.07;;
58874;SDS011;44652;49.040;12.126;2023-05-16T19:20:28;5.10;;;3.22;;
58874;SDS011;44652;49.040;12.126;2023-05-16T19:22:55;6.25;;;3.40;;
58874;SDS011;44652;49.040;12.126;2023-05-16T19:25:22;5.72;;;3.00;;
58874;SDS011;44652;49.040;12.126;2023-05-16T19:27:48;4.75;;;3.10;;
58874;SDS011;44652;49.040;12.126;2023-05-16T19:30:15;4.10;;;2.80;;
58874;SDS011;44652;49.040;12.126;2023-05-16T19:32:42;6.03;;;3.22;;
58874;SDS011;44652;49.040;12.126;2023-05-16T19:35:09;4.15;;;2.72;;
58874;SDS011;44652;49.040;12.126;2023-05-16T19:37:36;6.20;;;2.60;;
58874;SDS011;44652;49.040;12.126;2023-05-16T19:40:03;6.93;;;3.00;;
58874;SDS011;44652;49.040;12.126;2023-05-16T19:42:29;6.53;;;3.03;;
58874;SDS011;44652;49.040;12.126;2023-05-16T19:44:56;4.80;;;2.35;;
58874;SDS011;44652;49.040;12.126;2023-05-16T19:47:23;8.80;;;3.00;;
58874;SDS011;44652;49.040;12.126;2023-05-16T19:49:50;6.80;;;2.60;;
58874;SDS011;44652;49.040;12.126;2023-05-16T19:52:17;5.28;;;2.55;;
58874;SDS011;44652;49.040;12.126;2023-05-16T19:54:43;5.97;;;2.70;;
58874;SDS011;44652;49.040;12.126;2023-05-16T19:57:10;8.25;;;2.40;;
58874;SDS011;44652;49.040;12.126;2023-05-16T19:59:37;7.57;;;2.85;;
58874;SDS011;44652;49.040;12.126;2023-05-16T20:02:03;6.70;;;2.88;;
58874;SDS011;44652;49.040;12.126;2023-05-16T20:04:30;7.43;;;2.63;;
58874;SDS011;44652;49.040;12.126;2023-05-16T20:06:57;5.22;;;2.42;;
58874;SDS011;44652;49.040;12.126;2023-05-16T20:09:24;6.13;;;2.58;;
58874;SDS011;44652;49.040;12.126;2023-05-16T20:11:50;6.60;;;2.88;;
58874;SDS011;44652;49.040;12.126;2023-05-16T20:16:45;7.57;;;2.60;;
58874;SDS011;44652;49.040;12.126;2023-05-16T20:19:12;7.28;;;2.72;;
58874;SDS011;44652;49.040;12.126;2023-05-16T20:21:40;7.93;;;2.50;;
58874;SDS011;44652;49.040;12.126;2023-05-16T20:24:07;5.82;;;2.28;;